createdAt,value
2019-03-04T00:01:35.772Z,3.77
2019-03-04T00:04:04.749Z,3.10
2019-03-04T00:06:33.724Z,3.40
2019-03-04T00:09:02.695Z,3.80
2019-03-04T00:11:31.618Z,3.67
2019-03-04T00:14:00.611Z,3.37
2019-03-04T00:16:29.713Z,5.10
2019-03-04T00:18:58.684Z,5.67
2019-03-04T00:21:27.812Z,3.13
2019-03-04T00:23:56.817Z,2.90
2019-03-04T00:26:25.860Z,2.87
2019-03-04T00:28:55.197Z,3.00
2019-03-04T00:31:24.263Z,3.23
2019-03-04T00:33:53.238Z,3.10
2019-03-04T00:36:22.304Z,2.70
2019-03-04T00:38:51.551Z,3.90
2019-03-04T00:41:20.766Z,3.00
2019-03-04T00:43:49.871Z,2.90
2019-03-04T00:46:18.985Z,3.10
2019-03-04T00:48:48.290Z,2.70
2019-03-04T00:51:17.408Z,2.40
2019-03-04T00:53:46.515Z,2.73
2019-03-04T00:56:15.609Z,2.13
2019-03-04T00:58:44.854Z,2.47
2019-03-04T01:01:13.928Z,2.60
2019-03-04T01:03:42.976Z,2.23
2019-03-04T01:06:11.852Z,1.87
2019-03-04T01:08:40.895Z,2.60
2019-03-04T01:11:09.880Z,2.10
2019-03-04T01:13:38.894Z,2.97
2019-03-04T01:16:07.908Z,2.30
2019-03-04T01:18:36.889Z,2.73
2019-03-04T01:21:05.876Z,2.67
2019-03-04T01:23:34.945Z,2.90
2019-03-04T01:26:03.930Z,2.50
2019-03-04T01:28:33.108Z,2.90
2019-03-04T01:31:02.238Z,2.17
2019-03-04T01:33:31.270Z,1.87
2019-03-04T01:36:00.171Z,1.87
2019-03-04T01:38:29.151Z,1.90
2019-03-04T01:40:58.130Z,2.27
2019-03-04T01:43:28.129Z,1.63
2019-03-04T01:45:57.115Z,1.90
2019-03-04T01:48:26.089Z,2.00
2019-03-04T01:50:54.973Z,1.33
2019-03-04T01:53:23.931Z,1.70
2019-03-04T01:55:53.488Z,1.67
2019-03-04T01:58:22.490Z,2.20
2019-03-04T02:00:51.448Z,2.13
2019-03-04T02:03:20.442Z,1.70
2019-03-04T02:05:49.445Z,1.57
2019-03-04T02:08:18.461Z,1.57
2019-03-04T02:10:47.780Z,1.70
2019-03-04T02:13:16.867Z,1.80
2019-03-04T02:15:46.135Z,1.80
2019-03-04T02:18:15.136Z,2.00
2019-03-04T02:20:44.134Z,2.53
2019-03-04T02:23:13.138Z,2.10
2019-03-04T02:26:26.228Z,1.83
2019-03-04T02:28:55.339Z,1.50
2019-03-04T02:31:24.345Z,1.50
2019-03-04T02:33:53.529Z,1.60
2019-03-04T02:36:22.434Z,1.80
2019-03-04T02:38:51.225Z,1.70
2019-03-04T02:41:20.262Z,1.70
2019-03-04T02:43:49.157Z,1.60
2019-03-04T02:46:18.175Z,1.97
2019-03-04T02:48:47.122Z,1.97
2019-03-04T02:51:16.253Z,1.73
2019-03-04T02:53:45.290Z,2.20
2019-03-04T02:56:14.305Z,1.80
2019-03-04T02:58:43.269Z,2.33
2019-03-04T03:01:12.296Z,2.10
2019-03-04T03:03:41.399Z,2.10
2019-03-04T03:06:13.080Z,2.03
2019-03-04T03:08:42.120Z,1.67
2019-03-04T03:11:11.099Z,2.03
2019-03-04T03:13:40.083Z,1.87
2019-03-04T03:16:09.083Z,2.33
2019-03-04T03:18:38.029Z,2.00
2019-03-04T03:21:07.890Z,2.00
2019-03-04T03:23:36.880Z,1.83
2019-03-04T03:26:05.994Z,1.80
2019-03-04T03:28:35.050Z,1.70
2019-03-04T03:31:04.201Z,2.37
2019-03-04T03:33:33.176Z,2.10
2019-03-04T03:36:02.190Z,2.47
2019-03-04T03:38:31.172Z,1.90
2019-03-04T03:41:00.258Z,1.90
2019-03-04T03:43:29.270Z,1.80
2019-03-04T03:45:58.273Z,2.40
2019-03-04T03:48:27.381Z,2.07
2019-03-04T03:50:56.406Z,2.00
2019-03-04T03:53:25.557Z,2.03
2019-03-04T03:55:54.713Z,2.23
2019-03-04T03:58:25.196Z,2.30
2019-03-04T04:00:54.442Z,2.40
2019-03-04T04:03:23.453Z,2.27
2019-03-04T04:05:52.556Z,2.10
2019-03-04T04:08:21.578Z,2.40
2019-03-04T04:10:50.695Z,2.30
2019-03-04T04:13:20.390Z,2.50
2019-03-04T04:15:49.507Z,2.33
2019-03-04T04:18:18.648Z,2.40
2019-03-04T04:20:47.658Z,2.20
2019-03-04T04:23:16.566Z,2.30
2019-03-04T04:25:45.557Z,2.90
2019-03-04T04:28:14.646Z,3.20
2019-03-04T04:30:43.757Z,3.13
2019-03-04T04:33:12.777Z,3.87
2019-03-04T04:35:41.782Z,3.13
2019-03-04T04:38:10.755Z,3.93
2019-03-04T04:40:39.849Z,3.37
2019-03-04T04:43:08.902Z,3.53
2019-03-04T04:45:37.945Z,3.90
2019-03-04T04:48:07.102Z,4.17
2019-03-04T04:50:36.087Z,3.70
2019-03-04T04:53:05.124Z,4.03
2019-03-04T04:55:34.103Z,3.90
2019-03-04T04:58:04.160Z,4.27
2019-03-04T05:00:33.132Z,3.90
2019-03-04T05:03:02.144Z,3.97
2019-03-04T05:05:31.085Z,3.80
2019-03-04T05:08:00.066Z,3.87
2019-03-04T05:10:29.001Z,4.00
2019-03-04T05:12:58.069Z,4.50
2019-03-04T05:15:27.029Z,3.67
2019-03-04T05:17:56.037Z,3.90
2019-03-04T05:20:24.982Z,4.30
2019-03-04T05:22:53.940Z,4.17
2019-03-04T05:25:23.251Z,3.77
2019-03-04T05:27:52.684Z,6.00
2019-03-04T05:30:21.637Z,4.20
2019-03-04T05:32:50.947Z,4.50
2019-03-04T05:35:19.893Z,3.90
2019-03-04T05:37:48.999Z,4.17
2019-03-04T05:40:17.979Z,3.47
2019-03-04T05:42:47.815Z,3.30
2019-03-04T05:45:16.786Z,2.70
2019-03-04T05:47:45.877Z,3.20
2019-03-04T05:50:15.758Z,2.73
2019-03-04T05:52:44.769Z,3.20
2019-03-04T05:55:14.614Z,2.93
2019-03-04T05:57:43.696Z,3.07
2019-03-04T06:00:16.178Z,2.93
2019-03-04T06:02:45.353Z,3.00
2019-03-04T06:05:14.930Z,2.47
2019-03-04T06:07:50.653Z,2.73
2019-03-04T06:10:19.770Z,2.70
2019-03-04T06:12:48.623Z,2.17
2019-03-04T06:15:19.426Z,3.20
2019-03-04T06:17:48.513Z,2.80
2019-03-04T06:20:18.489Z,2.50
2019-03-04T06:22:47.835Z,2.87
2019-03-04T06:25:18.994Z,2.80
2019-03-04T06:27:48.099Z,4.13
2019-03-04T06:30:19.010Z,2.63
2019-03-04T06:32:48.006Z,2.80
2019-03-04T06:35:16.980Z,2.77
2019-03-04T06:37:46.042Z,2.87
2019-03-04T06:40:15.264Z,2.73
2019-03-04T06:42:44.665Z,3.10
2019-03-04T06:45:14.539Z,2.93
2019-03-04T06:47:43.722Z,2.60
2019-03-04T06:50:57.309Z,2.10
2019-03-04T06:53:35.937Z,2.43
2019-03-04T06:56:21.561Z,3.43
2019-03-04T06:58:52.612Z,2.20
2019-03-04T07:01:35.651Z,2.80
2019-03-04T07:04:13.169Z,2.40
2019-03-04T07:06:42.216Z,2.87
2019-03-04T07:09:16.599Z,2.90
2019-03-04T07:11:49.693Z,2.60
2019-03-04T07:14:18.972Z,2.30
2019-03-04T07:16:48.992Z,2.63
2019-03-04T07:19:25.319Z,2.30
2019-03-04T07:21:54.324Z,2.00
2019-03-04T07:24:23.309Z,1.90
2019-03-04T07:26:52.326Z,1.70
2019-03-04T07:29:21.213Z,1.80
2019-03-04T07:31:50.262Z,1.43
2019-03-04T07:34:19.381Z,1.87
2019-03-04T07:36:48.363Z,2.20
2019-03-04T07:39:18.018Z,1.30
2019-03-04T07:41:48.701Z,1.43
2019-03-04T07:44:17.712Z,1.13
2019-03-04T07:46:46.692Z,1.77
2019-03-04T07:49:15.680Z,1.30
2019-03-04T07:51:44.797Z,1.40
2019-03-04T07:54:13.787Z,1.47
2019-03-04T07:56:42.800Z,2.03
2019-03-04T07:59:11.793Z,2.13
2019-03-04T08:01:40.877Z,1.47
2019-03-04T08:04:09.778Z,1.37
2019-03-04T08:06:38.760Z,1.27
2019-03-04T08:09:55.353Z,1.00
2019-03-04T08:13:02.047Z,1.70
2019-03-04T08:15:35.193Z,1.97
2019-03-04T08:18:04.279Z,1.57
2019-03-04T08:20:33.272Z,1.90
2019-03-04T08:23:02.366Z,1.73
2019-03-04T08:25:31.916Z,1.57
2019-03-04T08:28:00.992Z,1.40
2019-03-04T08:30:29.898Z,1.33
2019-03-04T08:32:59.041Z,2.00
2019-03-04T08:35:28.147Z,1.43
2019-03-04T08:37:57.132Z,1.30
2019-03-04T08:40:27.293Z,1.10
2019-03-04T08:42:56.329Z,1.57
2019-03-04T08:45:25.380Z,1.40
2019-03-04T08:47:54.364Z,1.47
2019-03-04T08:50:23.390Z,1.80
2019-03-04T08:52:52.387Z,1.57
2019-03-04T08:55:22.097Z,1.80
2019-03-04T08:57:51.043Z,1.07
2019-03-04T09:00:22.056Z,1.30
2019-03-04T09:02:51.143Z,2.10
2019-03-04T09:05:20.220Z,1.33
2019-03-04T09:07:49.152Z,1.47
2019-03-04T09:10:20.296Z,1.53
2019-03-04T09:12:49.382Z,1.43
2019-03-04T09:15:18.465Z,1.90
2019-03-04T09:17:47.597Z,1.97
2019-03-04T09:20:16.819Z,1.90
2019-03-04T09:22:45.776Z,1.70
2019-03-04T09:25:18.267Z,1.90
2019-03-04T09:27:47.361Z,1.90
2019-03-04T09:30:16.357Z,2.27
2019-03-04T09:32:45.766Z,3.07
2019-03-04T09:35:14.850Z,2.70
2019-03-04T09:37:44.675Z,3.73
2019-03-04T09:40:15.920Z,1.70
2019-03-04T09:42:45.391Z,1.83
2019-03-04T09:45:14.593Z,3.40
2019-03-04T09:47:43.714Z,2.00
2019-03-04T09:50:15.095Z,2.43
2019-03-04T09:52:44.064Z,2.60
2019-03-04T09:55:13.931Z,2.30
2019-03-04T09:57:43.362Z,2.40
2019-03-04T10:00:41.951Z,2.60
2019-03-04T10:03:42.869Z,2.40
2019-03-04T10:06:27.246Z,2.00
2019-03-04T10:09:39.355Z,1.83
2019-03-04T10:12:58.061Z,1.30
2019-03-04T10:16:00.058Z,1.73
2019-03-04T10:19:04.705Z,1.70
2019-03-04T10:22:23.517Z,1.30
2019-03-04T10:25:30.884Z,1.60
2019-03-04T10:28:15.085Z,2.27
2019-03-04T10:31:23.714Z,1.93
2019-03-04T10:34:34.442Z,1.80
2019-03-04T10:37:26.031Z,1.50
2019-03-04T10:40:30.845Z,1.60
2019-03-04T10:43:32.175Z,2.73
2019-03-04T10:46:31.285Z,2.60
2019-03-04T10:49:00.250Z,1.60
2019-03-04T10:51:29.263Z,1.33
2019-03-04T10:53:58.271Z,2.23
2019-03-04T10:56:27.330Z,1.50
2019-03-04T10:58:56.327Z,1.37
2019-03-04T11:01:30.423Z,1.17
2019-03-04T11:03:56.230Z,1.70
2019-03-04T11:06:25.261Z,2.07
2019-03-04T11:08:54.248Z,1.70
2019-03-04T11:11:29.751Z,1.50
2019-03-04T11:13:54.248Z,1.53
2019-03-04T11:16:23.337Z,1.80
2019-03-04T11:18:52.478Z,1.70
2019-03-04T11:21:21.480Z,1.60
2019-03-04T11:23:50.479Z,1.60
2019-03-04T11:26:20.140Z,2.07
2019-03-04T11:28:49.160Z,2.47
2019-03-04T11:31:18.220Z,1.87
2019-03-04T11:33:47.146Z,1.40
2019-03-04T11:36:16.178Z,1.83
2019-03-04T11:38:47.221Z,2.37
2019-03-04T11:41:18.637Z,1.57
2019-03-04T11:43:47.672Z,1.40
2019-03-04T11:46:17.076Z,2.07
2019-03-04T11:48:46.053Z,1.17
2019-03-04T11:51:15.073Z,1.30
2019-03-04T11:53:44.157Z,1.60
2019-03-04T11:56:13.202Z,1.50
2019-03-04T11:58:42.216Z,1.70
2019-03-04T12:01:14.323Z,1.30
2019-03-04T12:03:43.585Z,1.17
2019-03-04T12:06:12.689Z,1.50
2019-03-04T12:08:41.865Z,1.67
2019-03-04T12:11:10.961Z,2.03
2019-03-04T12:13:39.875Z,2.03
2019-03-04T12:16:08.796Z,1.53
2019-03-04T12:18:39.921Z,1.40
2019-03-04T12:21:08.935Z,1.90
2019-03-04T12:23:38.233Z,1.40
2019-03-04T12:26:07.450Z,2.50
2019-03-04T12:28:36.688Z,1.13
2019-03-04T12:31:05.843Z,1.50
2019-03-04T12:33:34.909Z,2.40
2019-03-04T12:36:04.056Z,1.73
2019-03-04T12:38:32.967Z,1.70
2019-03-04T12:41:02.122Z,1.90
2019-03-04T12:43:31.156Z,1.30
2019-03-04T12:46:00.279Z,1.80
2019-03-04T12:48:29.408Z,1.57
2019-03-04T12:50:58.456Z,1.80
2019-03-04T12:53:36.806Z,2.43
2019-03-04T12:55:58.376Z,1.73
2019-03-04T12:58:27.384Z,1.17
2019-03-04T13:00:56.361Z,2.40
2019-03-04T13:03:26.024Z,1.97
2019-03-04T13:05:55.979Z,1.30
2019-03-04T13:08:25.102Z,1.20
2019-03-04T13:10:54.270Z,1.10
2019-03-04T13:13:23.476Z,1.50
2019-03-04T13:15:54.035Z,1.20
2019-03-04T13:18:23.024Z,1.77
2019-03-04T13:20:52.134Z,1.40
2019-03-04T13:23:21.226Z,1.00
2019-03-04T13:25:52.275Z,1.27
2019-03-04T13:28:20.972Z,1.20
2019-03-04T13:30:50.018Z,0.90
2019-03-04T13:33:19.006Z,1.20
2019-03-04T13:35:48.059Z,0.80
2019-03-04T13:38:17.177Z,0.97
2019-03-04T13:40:46.204Z,1.53
2019-03-04T13:43:15.368Z,1.50
2019-03-04T13:45:44.597Z,1.47
2019-03-04T13:48:13.590Z,1.50
2019-03-04T13:50:42.705Z,1.30
2019-03-04T13:53:11.790Z,1.30
2019-03-04T13:55:40.860Z,2.00
2019-03-04T13:58:10.025Z,1.80
2019-03-04T14:00:39.114Z,1.83
2019-03-04T14:03:08.264Z,2.00
2019-03-04T14:05:37.424Z,1.70
2019-03-04T14:08:06.855Z,1.90
2019-03-04T14:10:36.698Z,1.40
2019-03-04T14:13:05.767Z,1.00
2019-03-04T14:15:36.737Z,1.33
2019-03-04T14:18:05.864Z,1.20
2019-03-04T14:20:34.907Z,2.77
2019-03-04T14:23:04.042Z,1.90
2019-03-04T14:25:33.468Z,1.83
2019-03-04T14:28:02.507Z,1.53
2019-03-04T14:30:31.527Z,1.60
2019-03-04T14:33:00.628Z,1.57
2019-03-04T14:35:29.932Z,2.10
2019-03-04T14:37:58.927Z,2.07
2019-03-04T14:40:27.953Z,1.73
2019-03-04T14:42:56.916Z,1.60
2019-03-04T14:45:25.987Z,1.23
2019-03-04T14:47:54.961Z,1.70
2019-03-04T14:50:23.937Z,1.40
2019-03-04T14:52:53.014Z,1.70
2019-03-04T14:55:22.451Z,1.30
2019-03-04T14:57:51.554Z,1.50
2019-03-04T15:00:25.301Z,1.10
2019-03-04T15:02:54.395Z,1.77
2019-03-04T15:05:23.379Z,1.63
2019-03-04T15:07:52.430Z,1.43
2019-03-04T15:10:21.550Z,1.50
2019-03-04T15:12:50.643Z,2.83
2019-03-04T15:15:19.704Z,1.40
2019-03-04T15:17:48.768Z,1.40
2019-03-04T15:20:19.102Z,1.70
2019-03-04T15:22:48.174Z,1.90
2019-03-04T15:25:22.312Z,1.60
2019-03-04T15:27:51.364Z,1.47
2019-03-04T15:30:20.436Z,1.60
2019-03-04T15:32:49.466Z,1.63
2019-03-04T15:35:18.553Z,1.77
2019-03-04T15:37:47.573Z,2.13
2019-03-04T15:40:16.912Z,2.60
2019-03-04T15:42:47.182Z,2.77
2019-03-04T15:45:16.265Z,2.20
2019-03-04T15:47:45.352Z,2.20
2019-03-04T15:50:14.501Z,2.90
2019-03-04T15:52:45.241Z,3.20
2019-03-04T15:55:14.196Z,2.87
2019-03-04T15:57:43.230Z,4.10
2019-03-04T16:00:12.490Z,4.10
2019-03-04T16:02:41.410Z,2.47
2019-03-04T16:05:10.897Z,2.63
2019-03-04T16:07:39.807Z,2.70
2019-03-04T16:10:10.864Z,2.53
2019-03-04T16:12:40.002Z,2.23
2019-03-04T16:15:11.107Z,2.47
2019-03-04T16:17:40.148Z,2.30
2019-03-04T16:20:16.029Z,3.20
2019-03-04T16:22:41.643Z,2.73
2019-03-04T16:25:10.813Z,3.73
2019-03-04T16:27:39.760Z,3.70
2019-03-04T16:30:11.708Z,11.90
2019-03-04T16:32:40.685Z,5.57
2019-03-04T16:35:09.693Z,5.27
2019-03-04T16:37:38.765Z,2.47
2019-03-04T16:40:10.217Z,6.07
2019-03-04T16:42:39.419Z,4.23
2019-03-04T16:45:10.541Z,4.10
2019-03-04T16:47:39.721Z,4.90
2019-03-04T16:50:10.701Z,2.80
2019-03-04T16:52:39.723Z,5.40
2019-03-04T16:55:10.137Z,2.93
2019-03-04T16:57:39.185Z,2.00
2019-03-04T17:00:10.133Z,5.00
2019-03-04T17:02:39.326Z,3.00
2019-03-04T17:05:09.888Z,3.67
2019-03-04T17:07:38.799Z,2.73
2019-03-04T17:10:09.213Z,2.40
2019-03-04T17:12:38.301Z,2.73
2019-03-04T17:15:08.486Z,1.73
2019-03-04T17:17:37.529Z,2.70
2019-03-04T17:20:07.599Z,2.20
2019-03-04T17:22:36.697Z,1.80
2019-03-04T17:25:06.474Z,2.20
2019-03-04T17:27:35.519Z,2.30
2019-03-04T17:30:05.965Z,2.13
2019-03-04T17:32:35.075Z,2.70
2019-03-04T17:35:04.526Z,2.63
2019-03-04T17:37:33.650Z,4.57
2019-03-04T17:40:02.806Z,3.30
2019-03-04T17:42:31.914Z,2.97
2019-03-04T17:45:01.041Z,1.90
2019-03-04T17:47:30.745Z,2.70
2019-03-04T17:49:59.844Z,1.80
2019-03-04T17:52:28.982Z,2.60
2019-03-04T17:54:58.168Z,2.30
2019-03-04T17:57:27.264Z,8.50
2019-03-04T17:59:56.394Z,5.77
2019-03-04T18:02:25.509Z,5.90
2019-03-04T18:04:54.673Z,9.43
2019-03-04T18:07:23.714Z,6.17
2019-03-04T18:09:52.788Z,5.90
2019-03-04T18:12:21.749Z,4.77
2019-03-04T18:14:50.780Z,8.17
2019-03-04T18:17:19.879Z,6.30
2019-03-04T18:19:48.865Z,6.57
2019-03-04T18:22:17.956Z,4.43
2019-03-04T18:24:47.056Z,9.17
2019-03-04T18:27:23.231Z,9.13
2019-03-04T18:30:32.425Z,11.17
2019-03-04T18:34:03.594Z,11.57
2019-03-04T18:37:07.129Z,7.63
2019-03-04T18:40:03.110Z,8.73
2019-03-04T18:43:18.050Z,6.70
2019-03-04T18:46:16.000Z,3.37
2019-03-04T18:48:53.560Z,2.80
2019-03-04T18:51:22.709Z,4.17
2019-03-04T18:53:52.943Z,3.57
2019-03-04T18:56:22.417Z,3.93
2019-03-04T18:58:51.644Z,3.50
2019-03-04T19:01:20.875Z,2.70
2019-03-04T19:03:50.066Z,3.30
2019-03-04T19:06:19.162Z,3.50
2019-03-04T19:08:48.607Z,4.80
2019-03-04T19:11:17.662Z,7.03
2019-03-04T19:13:46.775Z,6.70
2019-03-04T19:16:15.754Z,4.57
2019-03-04T19:18:44.767Z,4.43
2019-03-04T19:21:13.815Z,4.50
2019-03-04T19:23:42.951Z,3.97
2019-03-04T19:26:12.342Z,3.77
2019-03-04T19:28:41.451Z,4.23
2019-03-04T19:31:10.484Z,3.77
2019-03-04T19:33:39.524Z,3.93
2019-03-04T19:36:08.525Z,4.00
2019-03-04T19:38:37.633Z,3.90
2019-03-04T19:41:06.859Z,3.50
2019-03-04T19:43:35.887Z,3.53
2019-03-04T19:46:04.882Z,3.40
2019-03-04T19:48:33.871Z,3.27
2019-03-04T19:51:02.849Z,3.40
2019-03-04T19:53:32.092Z,3.90
2019-03-04T19:56:01.490Z,4.00
2019-03-04T19:58:30.666Z,3.97
2019-03-04T20:00:59.969Z,3.90
2019-03-04T20:03:29.204Z,4.00
2019-03-04T20:05:58.372Z,4.20
2019-03-04T20:08:27.353Z,4.40
2019-03-04T20:10:56.717Z,3.70
2019-03-04T20:13:25.835Z,3.70
2019-03-04T20:15:55.003Z,3.60
2019-03-04T20:18:24.461Z,3.60
2019-03-04T20:20:53.558Z,3.80
2019-03-04T20:23:22.657Z,3.70
2019-03-04T20:25:53.477Z,3.20
2019-03-04T20:28:22.575Z,3.23
2019-03-04T20:30:51.655Z,4.00
2019-03-04T20:33:20.630Z,4.03
2019-03-04T20:35:50.072Z,3.00
2019-03-04T20:38:21.198Z,2.73
2019-03-04T20:40:50.425Z,3.60
2019-03-04T20:43:19.461Z,2.77
2019-03-04T20:45:48.525Z,3.53
2019-03-04T20:48:17.717Z,4.70
2019-03-04T20:50:46.676Z,3.10
2019-03-04T20:53:15.703Z,3.00
2019-03-04T20:55:44.717Z,4.00
2019-03-04T20:58:13.681Z,4.30
2019-03-04T21:00:43.002Z,4.47
2019-03-04T21:03:11.954Z,4.93
2019-03-04T21:05:41.035Z,4.40
2019-03-04T21:08:10.115Z,5.23
2019-03-04T21:10:39.255Z,4.97
2019-03-04T21:13:21.173Z,5.53
2019-03-04T21:15:50.220Z,4.10
2019-03-04T21:18:19.518Z,3.73
2019-03-04T21:20:48.866Z,4.03
2019-03-04T21:23:17.853Z,3.73
2019-03-04T21:26:13.840Z,3.77
2019-03-04T21:29:14.295Z,3.80
2019-03-04T21:31:50.842Z,3.93
2019-03-04T21:34:45.270Z,3.47
2019-03-04T21:37:21.730Z,4.30
2019-03-04T21:39:50.923Z,4.30
2019-03-04T21:42:27.636Z,3.80
2019-03-04T21:45:38.037Z,3.87
2019-03-04T21:48:16.946Z,3.77
2019-03-04T21:50:56.619Z,2.50
2019-03-04T21:53:32.976Z,3.30
2019-03-04T21:56:45.450Z,3.17
2019-03-04T21:59:14.611Z,3.33
2019-03-04T22:01:48.378Z,2.97
2019-03-04T22:04:17.642Z,2.80
2019-03-04T22:06:47.198Z,2.90
2019-03-04T22:09:16.292Z,2.90
2019-03-04T22:11:45.281Z,2.77
2019-03-04T22:14:14.274Z,2.93
2019-03-04T22:16:43.400Z,2.93
2019-03-04T22:19:13.170Z,3.80
2019-03-04T22:21:42.234Z,2.63
2019-03-04T22:24:11.282Z,3.47
2019-03-04T22:26:40.366Z,3.20
2019-03-04T22:29:09.449Z,2.70
2019-03-04T22:31:38.471Z,2.23
2019-03-04T22:34:07.593Z,3.07
2019-03-04T22:36:36.641Z,2.80
2019-03-04T22:39:06.493Z,3.20
2019-03-04T22:41:36.079Z,3.00
2019-03-04T22:44:05.088Z,3.67
2019-03-04T22:46:34.287Z,3.83
2019-03-04T22:49:03.359Z,3.73
2019-03-04T22:51:32.375Z,2.87
2019-03-04T22:54:01.330Z,3.57
2019-03-04T22:56:30.353Z,4.00
2019-03-04T22:58:59.367Z,2.97
2019-03-04T23:01:41.265Z,2.50
2019-03-04T23:04:21.646Z,3.57
2019-03-04T23:06:59.998Z,2.40
2019-03-04T23:09:30.684Z,2.23
2019-03-04T23:12:14.277Z,2.27
2019-03-04T23:14:43.268Z,2.80
2019-03-04T23:17:12.374Z,2.23
2019-03-04T23:19:42.422Z,1.90
2019-03-04T23:22:12.738Z,2.00
2019-03-04T23:24:41.884Z,2.47
2019-03-04T23:27:10.910Z,2.37
2019-03-04T23:29:39.976Z,2.47
2019-03-04T23:32:08.975Z,2.87
2019-03-04T23:34:38.070Z,1.93
2019-03-04T23:37:07.376Z,2.57
2019-03-04T23:39:36.584Z,2.80
2019-03-04T23:42:05.746Z,3.00
2019-03-04T23:44:34.683Z,2.10
2019-03-04T23:47:03.659Z,2.97
2019-03-04T23:49:32.709Z,2.47
2019-03-04T23:52:01.777Z,2.13
2019-03-04T23:54:30.769Z,3.00
2019-03-04T23:56:59.830Z,2.93
2019-03-04T23:59:28.819Z,2.43
